Terminal Aerodrome Forecast
Issued by NWS Memphis, TN

Home | Current Version | Previous Version | Text Only | Print | Product List | Glossary On
Versions: 1 2 3 4 5 6 7 8 9 10 11 12 13 14 15 16 17 18
000
FTUS44 KMEG 261100
TAFMKL
TAF
KMKL 261123Z 2612/2712 20004KT P6SM SKC
     FM261400 21010KT P6SM SKC
     FM270100 20005KT P6SM SKC
      TEMPO 2708/2712 3SM BR=

USA.gov is the U.S. government's official web portal to all federal, state and local government web resources and services.